Terminal Aerodrome Forecast
Issued by NWS

Home | Current Version | Previous Version | Text Only | Print | Product List | Glossary On
Versions: 1 2 3 4 5 6 7 8 9 10 11 12 13 14 15 16 17 18
811
FTUS43 KAPX 102337 AAB
TAFMBL
TAF AMD
KMBL 102337Z 1100/1124 25004KT P6SM VCSH OVC030
     FM110900 13004KT 6SM -SHSN OVC025
     FM111200 12008KT 5SM -SN OVC025
     FM111400 14011KT 1 1/2SM -SN OVC018=

USA.gov is the U.S. government's official web portal to all federal, state and local government web resources and services.